Accueil
METAR-TAF:

METAR-TAF

Aéroports :

Akulivik, Québec, Canada

latitude: 60-49N, longitude: 078-09W, altitude: 20 m

Observation

Le bulletin a été fait il y a 6 heures et 20 minutes, à 19:00 UTC
Vent 3 kt de est/sud-est, variant entre nord-est et sud-est
Température -5°C
Humidité 86%
Pression 1015 hPa
Visibilité: 24.1 km
Nuages fragmentés à une hauteur de 3100 ft

METAR: CYKO 211900Z 12003KT 040V140 15SM BKN031 M05/M07 A2998 RMK SC7 LAST OB NEXT / 221200 UTC SLP156

Heure: 21:20 (01:20 UTC)


TAF: absent

Observations et prévisions météorologiques de plus de 4000 aéroports (messages METAR et TAF).

Les stations disponibles sont représentées par des disques jaunes et rouges sur la carte.

Passer la souris dessus pour voir le nom de la station.

Cliquer dessus pour voir les observations et prévisions météorologiques.

Pour changer de carte: cliquez sur les boutons verts avec une croix noire pour zoomer, sur le bouton vert avec un tiret pour effectuer un zoom arrière, ou sur les flèches vertes pour les cartes adjacentes.


METAR-TAF: